Time;durP1;ratioP1;P1;durP2;ratioP2;P2;SDS_P1;SDS_P2;PMS_P1;PMS_P2;Temp;Humidity;BMP_temperature;BMP_pressure;BME280_temperature;BME280_humidity;BME280_pressure;Samples;Min_cycle;Max_cycle;Signal;HPM_P1;HPM_P2
2022/03/29 00:00:23;;;;;;;12.88;9.30;;;;;14.20;101588.00;;;;4972795;28;20202;-78
2022/03/29 00:02:50;;;;;;;13.38;9.70;;;;;14.20;101587.00;;;;4973636;28;20214;-77
2022/03/29 00:05:19;;;;;;;13.57;9.93;;;;;14.10;101589.00;;;;4971404;28;20202;-78
2022/03/29 00:07:46;;;;;;;16.98;9.73;;;;;14.10;101584.00;;;;4971500;28;20285;-77
2022/03/29 00:10:13;;;;;;;12.15;9.32;;;;;14.10;101582.00;;;;4971959;28;20221;-77
2022/03/29 00:12:41;;;;;;;12.88;9.00;;;;;14.10;101578.00;;;;4971300;28;20241;-77
2022/03/29 00:15:09;;;;;;;14.75;9.43;;;;;14.10;101574.00;;;;4972306;28;20233;-77
2022/03/29 00:17:36;;;;;;;13.30;9.10;;;;;14.10;101574.00;;;;4970935;28;20346;-76
2022/03/29 00:20:04;;;;;;;10.88;8.38;;;;;14.10;101571.00;;;;4978993;28;20210;-77
2022/03/29 00:22:33;;;;;;;20.52;9.30;;;;;14.10;101561.00;;;;4971167;28;20194;-78
2022/03/29 00:25:00;;;;;;;12.73;9.32;;;;;14.10;101560.00;;;;4970330;28;20229;-78
2022/03/29 00:27:27;;;;;;;13.30;9.13;;;;;14.10;101554.00;;;;4970672;28;20202;-77
2022/03/29 00:29:55;;;;;;;13.18;9.35;;;;;14.10;101551.00;;;;4971989;28;20937;-77
2022/03/29 00:32:22;;;;;;;11.93;8.63;;;;;14.10;101544.00;;;;4972202;28;20669;-77
2022/03/29 00:34:50;;;;;;;15.75;9.02;;;;;14.10;101549.00;;;;4970700;28;20194;-77
2022/03/29 00:37:17;;;;;;;14.00;9.82;;;;;14.10;101542.00;;;;4976264;28;20704;-77
2022/03/29 00:39:46;;;;;;;13.45;9.65;;;;;14.10;101547.00;;;;4973908;28;20205;-77
2022/03/29 00:42:13;;;;;;;12.77;8.80;;;;;14.10;101543.00;;;;4974227;28;20190;-77
2022/03/29 00:44:40;;;;;;;12.75;9.43;;;;;14.10;101545.00;;;;4974285;28;20621;-77
2022/03/29 00:47:08;;;;;;;11.50;8.18;;;;;14.20;101534.00;;;;4974699;28;20190;-77
2022/03/29 00:49:36;;;;;;;12.63;9.23;;;;;14.20;101536.00;;;;4971108;28;20186;-77
2022/03/29 00:52:05;;;;;;;12.65;9.02;;;;;14.20;101536.00;;;;4970857;28;20225;-77
2022/03/29 00:54:35;;;;;;;13.32;9.68;;;;;14.20;101532.00;;;;4971674;28;20202;-79
2022/03/29 00:57:06;;;;;;;12.50;9.05;;;;;14.20;101527.00;;;;4968616;28;20281;-78
2022/03/29 00:59:33;;;;;;;13.95;9.88;;;;;14.20;101525.00;;;;4971833;28;20202;-77
2022/03/29 01:02:01;;;;;;;13.05;9.15;;;;;14.20;101522.00;;;;4969682;28;20209;-78
2022/03/29 01:04:28;;;;;;;14.05;9.43;;;;;14.30;101525.00;;;;4970979;28;20292;-78
2022/03/29 01:06:58;;;;;;;14.27;10.23;;;;;14.30;101523.00;;;;4971612;28;20290;-78
2022/03/29 01:09:26;;;;;;;15.50;8.57;;;;;14.30;101526.00;;;;4970738;28;20194;-78
2022/03/29 01:11:54;;;;;;;12.73;9.48;;;;;14.30;101516.00;;;;4971289;28;20330;-77
2022/03/29 01:14:23;;;;;;;13.05;9.15;;;;;14.30;101514.00;;;;4965432;28;20194;-77
2022/03/29 01:19:37;;;;;;;12.82;8.90;;;;;14.40;101520.00;;;;4970745;28;20274;-78
2022/03/29 01:22:09;;;;;;;15.73;9.88;;;;;14.40;101513.00;;;;4972771;28;20197;-78
2022/03/29 01:24:38;;;;;;;12.88;9.07;;;;;14.40;101517.00;;;;4971928;28;20194;-78
2022/03/29 01:27:07;;;;;;;14.38;10.00;;;;;14.40;101505.00;;;;4974277;28;20346;-78
2022/03/29 01:29:37;;;;;;;13.48;8.77;;;;;14.40;101499.00;;;;4972231;28;20258;-77
2022/03/29 01:32:08;;;;;;;12.27;9.30;;;;;14.40;101492.00;;;;4971742;28;20225;-77
2022/03/29 01:34:37;;;;;;;12.90;9.02;;;;;14.40;101494.00;;;;4969773;28;20195;-78
2022/03/29 01:37:06;;;;;;;13.15;9.00;;;;;14.40;101486.00;;;;4971272;28;20796;-78
2022/03/29 01:39:35;;;;;;;13.63;9.20;;;;;14.40;101492.00;;;;4970630;28;20205;-78
2022/03/29 01:42:03;;;;;;;13.50;10.15;;;;;14.40;101486.00;;;;4970258;28;20268;-78
2022/03/29 01:44:31;;;;;;;16.75;9.70;;;;;14.40;101487.00;;;;4975482;28;20288;-78
2022/03/29 01:46:58;;;;;;;14.10;9.98;;;;;14.30;101486.00;;;;4971446;28;20579;-78
2022/03/29 01:49:25;;;;;;;12.02;8.77;;;;;14.30;101484.00;;;;4953885;29;20210;-78
2022/03/29 01:51:53;;;;;;;13.30;9.43;;;;;14.30;101483.00;;;;4954566;28;20223;-78
2022/03/29 01:54:22;;;;;;;12.10;8.45;;;;;14.30;101478.00;;;;4971475;28;20209;-78
2022/03/29 01:56:49;;;;;;;13.50;9.25;;;;;14.30;101473.00;;;;4972623;28;20198;-78
2022/03/29 01:59:16;;;;;;;13.38;8.77;;;;;14.30;101462.00;;;;4972146;28;20784;-77
2022/03/29 02:01:45;;;;;;;14.43;9.43;;;;;14.30;101463.00;;;;4974420;28;20273;-77
2022/03/29 02:04:13;;;;;;;11.45;8.90;;;;;14.30;101468.00;;;;4973137;28;20205;-77
2022/03/29 02:06:40;;;;;;;11.75;8.55;;;;;14.30;101459.00;;;;4972396;28;20198;-77
2022/03/29 02:09:08;;;;;;;12.30;8.70;;;;;14.20;101458.00;;;;4974006;28;20202;-78
2022/03/29 02:11:40;;;;;;;12.57;9.02;;;;;14.20;101465.00;;;;4972413;28;20627;-78
2022/03/29 02:14:07;;;;;;;13.90;8.75;;;;;14.20;101464.00;;;;4972541;28;20218;-78
2022/03/29 02:16:35;;;;;;;10.82;8.38;;;;;14.20;101459.00;;;;4972097;28;20328;-77
2022/03/29 02:19:02;;;;;;;11.48;8.30;;;;;14.10;101452.00;;;;4973367;28;20201;-78
2022/03/29 02:21:29;;;;;;;11.15;7.45;;;;;14.10;101453.00;;;;4968389;28;20724;-77
2022/03/29 02:23:56;;;;;;;12.10;8.57;;;;;14.10;101448.00;;;;4968813;28;20210;-78
2022/03/29 02:26:23;;;;;;;11.25;7.72;;;;;14.10;101450.00;;;;4970444;28;20691;-77
2022/03/29 02:28:52;;;;;;;11.77;7.97;;;;;14.10;101445.00;;;;4972008;28;20210;-77
2022/03/29 02:31:19;;;;;;;11.32;8.15;;;;;14.10;101444.00;;;;4972002;28;20268;-77
2022/03/29 02:33:47;;;;;;;10.93;7.70;;;;;14.10;101435.00;;;;4971134;28;20198;-77
2022/03/29 02:36:16;;;;;;;12.68;8.02;;;;;14.10;101436.00;;;;4973584;28;20209;-78
2022/03/29 02:38:43;;;;;;;13.50;7.82;;;;;14.10;101440.00;;;;4972945;28;20199;-78
2022/03/29 02:41:10;;;;;;;10.88;7.45;;;;;14.10;101436.00;;;;4972156;28;20198;-78
2022/03/29 02:43:38;;;;;;;10.48;7.78;;;;;14.10;101431.00;;;;4970601;28;20245;-78
2022/03/29 02:46:07;;;;;;;10.88;8.02;;;;;14.00;101425.00;;;;4972626;28;20195;-78
2022/03/29 02:48:34;;;;;;;16.75;8.07;;;;;14.00;101422.00;;;;4971860;28;20249;-78
2022/03/29 02:51:01;;;;;;;11.63;8.20;;;;;14.00;101418.00;;;;4971937;28;20233;-77
2022/03/29 02:53:28;;;;;;;10.88;7.80;;;;;14.00;101411.00;;;;4987123;28;20263;-78
2022/03/29 02:55:56;;;;;;;10.40;8.30;;;;;14.00;101416.00;;;;4973440;28;20847;-78
2022/03/29 02:58:23;;;;;;;10.95;7.65;;;;;14.00;101410.00;;;;4974071;28;20191;-78
2022/03/29 03:00:51;;;;;;;13.73;8.68;;;;;14.00;101401.00;;;;4973627;28;20210;-77
2022/03/29 03:03:20;;;;;;;11.07;7.57;;;;;14.00;101394.00;;;;4974008;28;20285;-77
2022/03/29 03:05:47;;;;;;;12.10;8.18;;;;;14.00;101403.00;;;;4969999;28;20634;-77
2022/03/29 03:08:14;;;;;;;15.02;8.05;;;;;13.90;101403.00;;;;4971467;28;20213;-77
2022/03/29 03:10:42;;;;;;;9.48;6.82;;;;;13.90;101401.00;;;;4975202;28;20205;-77
2022/03/29 03:13:11;;;;;;;13.57;8.18;;;;;13.90;101397.00;;;;4974867;28;20218;-77
2022/03/29 03:15:38;;;;;;;10.70;7.13;;;;;13.90;101391.00;;;;4971371;28;20705;-78
2022/03/29 03:18:05;;;;;;;12.27;8.27;;;;;13.90;101398.00;;;;4971454;28;20213;-78
2022/03/29 03:20:34;;;;;;;11.27;7.88;;;;;13.90;101387.00;;;;4971903;28;20198;-78
2022/03/29 03:23:03;;;;;;;10.70;7.68;;;;;13.90;101381.00;;;;4971382;28;20186;-78
2022/03/29 03:25:30;;;;;;;11.43;8.02;;;;;13.90;101391.00;;;;4967218;28;20724;-78
2022/03/29 03:27:57;;;;;;;11.50;7.93;;;;;13.90;101390.00;;;;4969296;28;20583;-78
2022/03/29 03:30:24;;;;;;;11.27;8.00;;;;;13.90;101391.00;;;;4972537;28;20194;-78
2022/03/29 03:32:54;;;;;;;9.90;7.32;;;;;13.90;101387.00;;;;4972735;28;20697;-78
2022/03/29 03:35:21;;;;;;;11.45;8.20;;;;;13.90;101386.00;;;;4968628;28;20226;-79
2022/03/29 03:37:50;;;;;;;12.07;8.00;;;;;13.90;101383.00;;;;4971569;28;20205;-78
2022/03/29 03:40:17;;;;;;;11.48;8.13;;;;;13.90;101382.00;;;;4968642;28;20219;-78
2022/03/29 03:42:45;;;;;;;10.32;6.75;;;;;13.90;101378.00;;;;4969181;28;20202;-77
2022/03/29 03:45:15;;;;;;;10.32;7.88;;;;;13.90;101373.00;;;;4970565;28;20205;-77
2022/03/29 03:47:43;;;;;;;11.82;7.30;;;;;13.90;101378.00;;;;4966684;28;20207;-77
2022/03/29 03:50:11;;;;;;;12.63;7.15;;;;;13.90;101378.00;;;;4968648;28;20660;-77
2022/03/29 03:52:38;;;;;;;10.85;7.63;;;;;13.90;101365.00;;;;4969375;28;20226;-77
2022/03/29 03:55:10;;;;;;;9.27;6.90;;;;;13.80;101368.00;;;;4968910;28;20202;-77
2022/03/29 03:57:37;;;;;;;10.23;7.55;;;;;13.80;101365.00;;;;4970104;28;20194;-77
2022/03/29 04:00:06;;;;;;;10.70;7.22;;;;;13.80;101361.00;;;;4977516;28;20201;-77
2022/03/29 04:02:33;;;;;;;11.73;8.23;;;;;13.80;101363.00;;;;4981887;28;20191;-77
2022/03/29 04:05:01;;;;;;;10.65;7.63;;;;;13.80;101362.00;;;;4969936;28;20657;-77
2022/03/29 04:07:28;;;;;;;11.57;7.55;;;;;13.80;101349.00;;;;4966701;28;20210;-77
2022/03/29 04:09:56;;;;;;;10.82;7.82;;;;;13.80;101356.00;;;;4968325;28;20190;-77
2022/03/29 04:12:27;;;;;;;12.43;7.70;;;;;13.80;101343.00;;;;4968601;28;20253;-77
2022/03/29 04:14:55;;;;;;;12.88;8.43;;;;;13.80;101338.00;;;;4967898;28;20209;-77
2022/03/29 04:17:22;;;;;;;11.15;7.50;;;;;13.80;101334.00;;;;4950512;28;20199;-77
2022/03/29 04:19:49;;;;;;;12.70;8.00;;;;;13.80;101330.00;;;;4950008;29;20199;-77
2022/03/29 04:22:18;;;;;;;9.52;6.78;;;;;13.70;101329.00;;;;4949103;29;20546;-77
2022/03/29 04:24:45;;;;;;;9.10;6.82;;;;;13.70;101334.00;;;;4949362;29;20227;-77
2022/03/29 04:27:12;;;;;;;12.75;7.78;;;;;13.70;101340.00;;;;4949930;28;20195;-77
2022/03/29 04:29:41;;;;;;;9.63;7.18;;;;;13.70;101343.00;;;;4950457;28;20195;-77
2022/03/29 04:32:09;;;;;;;9.07;6.82;;;;;13.70;101325.00;;;;4948919;28;20226;-77
2022/03/29 04:34:37;;;;;;;10.68;7.10;;;;;13.70;101328.00;;;;4950567;28;20290;-77
2022/03/29 04:37:04;;;;;;;10.68;7.18;;;;;13.70;101331.00;;;;4950228;28;20195;-77
2022/03/29 04:39:32;;;;;;;11.05;7.35;;;;;13.60;101332.00;;;;4950489;28;20206;-77
2022/03/29 04:41:59;;;;;;;11.48;7.43;;;;;13.60;101340.00;;;;4950624;28;20687;-77
2022/03/29 04:44:26;;;;;;;8.93;6.45;;;;;13.60;101330.00;;;;4952008;28;20191;-77
2022/03/29 04:46:55;;;;;;;11.60;7.18;;;;;13.50;101328.00;;;;4950770;28;20221;-77
2022/03/29 04:49:22;;;;;;;11.52;6.10;;;;;13.60;101325.00;;;;4950415;28;20199;-78
2022/03/29 04:51:51;;;;;;;9.65;6.85;;;;;13.50;101326.00;;;;4962156;28;20233;-78
2022/03/29 04:54:18;;;;;;;9.45;6.53;;;;;13.50;101320.00;;;;4969215;28;20198;-78
2022/03/29 04:56:45;;;;;;;10.00;7.30;;;;;13.50;101320.00;;;;4950700;28;20210;-77
2022/03/29 04:59:14;;;;;;;9.38;6.63;;;;;13.50;101318.00;;;;4950427;28;20265;-77
2022/03/29 05:01:41;;;;;;;10.32;7.57;;;;;13.50;101321.00;;;;4948958;28;20198;-76
2022/03/29 05:04:10;;;;;;;10.07;7.28;;;;;13.50;101320.00;;;;4952714;28;20709;-76
2022/03/29 05:06:37;;;;;;;8.57;6.72;;;;;13.50;101315.00;;;;4950111;29;20206;-76
2022/03/29 05:09:05;;;;;;;9.15;6.55;;;;;13.50;101309.00;;;;4965706;28;20198;-76
2022/03/29 05:11:33;;;;;;;10.10;6.97;;;;;13.50;101313.00;;;;4956722;28;20223;-75
2022/03/29 05:14:00;;;;;;;9.23;6.82;;;;;13.50;101304.00;;;;4951279;28;20218;-76
2022/03/29 05:16:27;;;;;;;10.63;7.18;;;;;13.50;101303.00;;;;4964923;28;20245;-77
2022/03/29 05:18:54;;;;;;;11.23;7.30;;;;;13.50;101303.00;;;;4971900;28;20202;-76
2022/03/29 05:21:23;;;;;;;10.07;7.20;;;;;13.50;101302.00;;;;4970996;28;20256;-76
2022/03/29 05:23:51;;;;;;;9.18;6.18;;;;;13.50;101302.00;;;;4971502;28;20225;-76
2022/03/29 05:26:18;;;;;;;11.30;7.57;;;;;13.50;101306.00;;;;4974046;28;20206;-76
2022/03/29 05:28:46;;;;;;;10.82;7.40;;;;;13.50;101304.00;;;;4967975;28;20220;-77
2022/03/29 05:31:13;;;;;;;10.60;7.68;;;;;13.50;101299.00;;;;4971455;28;20217;-78
2022/03/29 05:33:40;;;;;;;9.90;7.00;;;;;13.50;101306.00;;;;4971269;28;20215;-78
2022/03/29 05:36:07;;;;;;;11.55;7.95;;;;;13.50;101304.00;;;;4970605;28;20619;-77
2022/03/29 05:38:36;;;;;;;11.77;7.43;;;;;13.40;101303.00;;;;4967906;28;20210;-78
2022/03/29 05:41:03;;;;;;;11.88;7.53;;;;;13.40;101299.00;;;;4967634;28;20205;-78
2022/03/29 05:43:30;;;;;;;11.52;7.30;;;;;13.50;101301.00;;;;4977724;28;20210;-79
2022/03/29 05:48:56;;;;;;;10.60;7.53;;;;;13.40;101300.00;;;;4958729;28;21109;-80
2022/03/29 05:51:25;;;;;;;9.45;7.35;;;;;13.40;101299.00;;;;4967799;28;20198;-79
2022/03/29 05:53:54;;;;;;;10.32;6.55;;;;;13.40;101300.00;;;;4967944;28;20313;-77
2022/03/29 05:56:22;;;;;;;13.90;7.57;;;;;13.40;101301.00;;;;4969000;28;20253;-78
2022/03/29 05:58:49;;;;;;;11.40;8.02;;;;;13.40;101294.00;;;;4972059;28;20283;-78
2022/03/29 06:01:18;;;;;;;10.63;7.50;;;;;13.40;101296.00;;;;4975881;28;20198;-77
2022/03/29 06:03:45;;;;;;;11.95;8.35;;;;;13.40;101294.00;;;;4969869;28;20206;-78
2022/03/29 06:06:14;;;;;;;12.40;7.50;;;;;13.40;101285.00;;;;4960445;28;20947;-78
2022/03/29 06:08:41;;;;;;;13.00;7.25;;;;;13.40;101291.00;;;;4959023;28;20277;-78
2022/03/29 06:11:10;;;;;;;10.57;7.03;;;;;13.30;101292.00;;;;4975394;28;20264;-77
2022/03/29 06:13:37;;;;;;;11.00;7.82;;;;;13.30;101281.00;;;;4975770;28;20233;-78
2022/03/29 06:16:05;;;;;;;11.73;7.93;;;;;13.40;101290.00;;;;4976211;28;20724;-77
2022/03/29 06:18:33;;;;;;;11.35;8.10;;;;;13.40;101290.00;;;;4975770;28;20206;-77
2022/03/29 06:21:00;;;;;;;11.68;7.57;;;;;13.40;101294.00;;;;4975400;28;20304;-78
2022/03/29 06:23:28;;;;;;;11.73;7.80;;;;;13.40;101293.00;;;;4974931;28;20217;-77
2022/03/29 06:25:55;;;;;;;11.05;7.60;;;;;13.40;101288.00;;;;4976043;28;20205;-78
2022/03/29 06:28:23;;;;;;;10.48;7.32;;;;;13.40;101286.00;;;;4974870;28;20214;-78
2022/03/29 06:30:51;;;;;;;11.32;7.82;;;;;13.40;101282.00;;;;4974867;28;20203;-78
2022/03/29 06:33:20;;;;;;;12.45;8.57;;;;;13.40;101278.00;;;;4981313;28;20237;-77
2022/03/29 06:35:47;;;;;;;12.02;8.25;;;;;13.40;101278.00;;;;4994229;28;20201;-77
2022/03/29 06:38:20;;;;;;;10.68;7.50;;;;;13.40;101281.00;;;;4993991;28;20194;-78
2022/03/29 06:40:48;;;;;;;13.23;8.30;;;;;13.40;101279.00;;;;4995678;28;20201;-77
2022/03/29 06:43:16;;;;;;;12.32;7.75;;;;;13.40;101285.00;;;;4979069;28;20661;-77
2022/03/29 06:45:45;;;;;;;12.85;8.60;;;;;13.40;101281.00;;;;4974192;28;20209;-78
2022/03/29 06:48:13;;;;;;;12.93;8.32;;;;;13.50;101281.00;;;;4968265;28;20195;-77
2022/03/29 06:50:40;;;;;;;12.52;7.35;;;;;13.50;101279.00;;;;4968938;28;20202;-77
2022/03/29 06:53:08;;;;;;;12.13;7.55;;;;;13.50;101282.00;;;;4975011;28;20221;-77
2022/03/29 06:55:35;;;;;;;14.52;8.68;;;;;13.50;101281.00;;;;4977471;28;20209;-77
2022/03/29 06:58:03;;;;;;;16.40;8.20;;;;;13.60;101281.00;;;;4974164;28;20210;-77
2022/03/29 07:00:30;;;;;;;15.50;8.95;;;;;13.60;101287.00;;;;4975504;28;20198;-77
2022/03/29 07:02:59;;;;;;;12.38;8.23;;;;;13.60;101279.00;;;;4974270;28;20202;-77
2022/03/29 07:05:26;;;;;;;12.88;8.02;;;;;13.60;101284.00;;;;4974676;28;20190;-77
2022/03/29 07:07:53;;;;;;;13.48;8.50;;;;;13.60;101277.00;;;;4986113;28;20281;-77
2022/03/29 07:13:06;;;;;;;14.07;8.55;;;;;13.60;101285.00;;;;4961971;28;20719;-78
2022/03/29 07:15:33;;;;;;;15.77;9.13;;;;;13.60;101287.00;;;;4973651;28;20281;-77
2022/03/29 07:18:02;;;;;;;14.23;9.35;;;;;13.60;101289.00;;;;4981477;28;20210;-77
2022/03/29 07:20:29;;;;;;;15.20;9.13;;;;;13.60;101288.00;;;;4980697;28;20206;-77
2022/03/29 07:22:57;;;;;;;13.88;8.75;;;;;13.60;101291.00;;;;4980867;28;20206;-77
2022/03/29 07:25:25;;;;;;;14.70;9.48;;;;;13.60;101300.00;;;;4995614;28;20660;-78
2022/03/29 07:27:53;;;;;;;15.02;9.02;;;;;13.70;101303.00;;;;4998427;28;20202;-77
2022/03/29 07:30:21;;;;;;;13.93;9.27;;;;;13.70;101304.00;;;;4980597;28;20289;-78
2022/03/29 07:32:50;;;;;;;15.50;9.30;;;;;13.70;101302.00;;;;4979978;28;20253;-78
2022/03/29 07:35:20;;;;;;;17.50;9.50;;;;;13.80;101304.00;;;;4979095;28;20580;-78
2022/03/29 07:37:48;;;;;;;15.63;9.45;;;;;13.80;101308.00;;;;4978751;28;20195;-78
2022/03/29 07:40:18;;;;;;;14.88;9.15;;;;;13.90;101309.00;;;;4977999;28;20199;-78
2022/03/29 07:42:45;;;;;;;15.00;9.20;;;;;13.90;101303.00;;;;4991607;28;20207;-78
2022/03/29 07:45:14;;;;;;;17.20;10.90;;;;;13.90;101302.00;;;;4973326;28;20253;-79
2022/03/29 07:47:42;;;;;;;13.13;8.15;;;;;13.90;101301.00;;;;4974188;28;20202;-78
2022/03/29 07:50:12;;;;;;;14.32;8.80;;;;;13.90;101298.00;;;;4973672;28;21212;-78
2022/03/29 07:52:42;;;;;;;12.48;8.63;;;;;14.00;101295.00;;;;4975218;28;20240;-78
2022/03/29 07:55:12;;;;;;;13.10;8.68;;;;;14.00;101297.00;;;;4961255;28;21000;-78
2022/03/29 07:57:40;;;;;;;15.45;9.35;;;;;14.00;101294.00;;;;4975623;28;20261;-78
2022/03/29 08:02:55;;;;;;;13.27;7.95;;;;;14.10;101291.00;;;;4995435;28;20193;-78
2022/03/29 08:05:23;;;;;;;16.10;9.70;;;;;14.20;101287.00;;;;4974034;28;20198;-78
2022/03/29 08:07:52;;;;;;;16.15;9.00;;;;;14.20;101291.00;;;;4974155;28;20723;-78
2022/03/29 08:10:19;;;;;;;15.60;9.70;;;;;14.30;101287.00;;;;4973216;28;20210;-78
2022/03/29 08:12:47;;;;;;;13.32;8.90;;;;;14.30;101288.00;;;;4972922;28;20234;-78
2022/03/29 08:15:14;;;;;;;14.38;9.38;;;;;14.30;101283.00;;;;4980111;28;20210;-77
2022/03/29 08:17:41;;;;;;;13.82;9.10;;;;;14.40;101297.00;;;;4974085;28;20206;-78
2022/03/29 08:20:11;;;;;;;14.40;8.40;;;;;14.40;101287.00;;;;4974070;28;20202;-78
2022/03/29 08:22:44;;;;;;;13.45;9.15;;;;;14.40;101285.00;;;;4973188;28;20209;-78
2022/03/29 08:25:13;;;;;;;15.15;9.40;;;;;14.40;101287.00;;;;4972082;28;20285;-78
2022/03/29 08:27:41;;;;;;;13.93;9.48;;;;;14.50;101281.00;;;;4974700;28;20245;-78
2022/03/29 08:30:10;;;;;;;14.60;9.13;;;;;14.50;101276.00;;;;4973120;28;20203;-78
2022/03/29 08:32:37;;;;;;;16.15;9.43;;;;;14.50;101275.00;;;;4981121;28;20312;-78
2022/03/29 08:35:06;;;;;;;16.42;10.32;;;;;14.60;101268.00;;;;4992924;28;20980;-78
2022/03/29 08:37:35;;;;;;;14.50;9.93;;;;;14.60;101266.00;;;;4987395;28;20195;-78
2022/03/29 08:40:02;;;;;;;16.33;9.93;;;;;14.70;101264.00;;;;4974089;28;20195;-78
2022/03/29 08:42:31;;;;;;;18.38;11.52;;;;;14.70;101260.00;;;;4973747;28;20214;-79
2022/03/29 08:44:59;;;;;;;17.88;11.20;;;;;14.80;101260.00;;;;4973909;28;20301;-78
2022/03/29 08:47:27;;;;;;;16.13;9.30;;;;;14.80;101262.00;;;;4972156;28;20214;-78
2022/03/29 08:49:54;;;;;;;15.10;9.63;;;;;14.90;101268.00;;;;4985238;28;20213;-78
2022/03/29 08:52:21;;;;;;;15.07;10.55;;;;;14.90;101276.00;;;;4974115;28;20207;-78
2022/03/29 08:54:50;;;;;;;14.43;9.70;;;;;14.90;101276.00;;;;4974365;28;20202;-78
2022/03/29 08:57:17;;;;;;;15.02;9.70;;;;;15.00;101274.00;;;;4973295;28;20298;-78
2022/03/29 08:59:46;;;;;;;16.45;9.32;;;;;15.00;101271.00;;;;4974493;28;20198;-78
2022/03/29 09:02:15;;;;;;;15.77;9.88;;;;;15.00;101268.00;;;;4973753;28;20203;-78
2022/03/29 09:04:44;;;;;;;15.85;10.18;;;;;15.10;101276.00;;;;4972380;28;20635;-78
2022/03/29 09:07:11;;;;;;;17.73;10.25;;;;;15.10;101269.00;;;;4979789;28;20210;-78
2022/03/29 09:09:41;;;;;;;13.65;9.00;;;;;15.10;101271.00;;;;4973011;28;20206;-78
2022/03/29 09:12:13;;;;;;;14.68;9.82;;;;;15.10;101267.00;;;;4952901;29;20202;-78
2022/03/29 09:14:57;;;;;;;15.35;9.13;;;;;15.10;101264.00;;;;4971799;28;20581;-79
2022/03/29 09:17:31;;;;;;;14.82;8.93;;;;;15.20;101264.00;;;;4972891;28;20202;-78
2022/03/29 09:19:59;;;;;;;14.35;9.98;;;;;15.20;101264.00;;;;4978678;28;20205;-79
2022/03/29 09:22:42;;;;;;;15.40;9.32;;;;;15.20;101265.00;;;;4979636;28;20190;-78
2022/03/29 09:25:15;;;;;;;14.40;8.65;;;;;15.30;101268.00;;;;4966797;28;20207;-79
2022/03/29 09:27:54;;;;;;;14.43;9.18;;;;;15.30;101264.00;;;;4977572;28;20210;-78
2022/03/29 09:30:24;;;;;;;14.13;8.82;;;;;15.40;101265.00;;;;4977157;28;20210;-78
2022/03/29 09:32:57;;;;;;;13.40;9.48;;;;;15.40;101269.00;;;;4960098;28;20226;-78
2022/03/29 09:35:26;;;;;;;14.63;9.18;;;;;15.50;101259.00;;;;4962782;28;20617;-78
2022/03/29 09:37:53;;;;;;;17.20;10.88;;;;;15.60;101261.00;;;;4971734;28;20261;-78
2022/03/29 09:40:20;;;;;;;14.60;9.82;;;;;15.60;101255.00;;;;4988305;28;20221;-78
2022/03/29 09:43:01;;;;;;;14.35;9.85;;;;;15.60;101260.00;;;;5001010;28;20241;-78
2022/03/29 09:45:45;;;;;;;15.52;10.35;;;;;15.70;101269.00;;;;4981539;28;20996;-78
2022/03/29 09:48:26;;;;;;;15.85;9.38;;;;;15.80;101262.00;;;;4977482;28;20198;-78
2022/03/29 09:50:55;;;;;;;17.35;9.38;;;;;15.90;101275.00;;;;4975145;28;20244;-79
2022/03/29 09:53:37;;;;;;;13.57;8.75;;;;;15.90;101265.00;;;;4974315;28;20289;-78
2022/03/29 09:56:06;;;;;;;14.43;9.07;;;;;16.00;101264.00;;;;4975352;28;20217;-78
2022/03/29 09:58:33;;;;;;;12.25;8.70;;;;;16.00;101267.00;;;;4990651;28;20193;-78
2022/03/29 10:01:05;;;;;;;12.93;8.25;;;;;16.00;101256.00;;;;4996475;28;20197;-78
2022/03/29 10:03:34;;;;;;;15.20;9.63;;;;;16.00;101267.00;;;;4995219;28;20201;-78
2022/03/29 10:06:05;;;;;;;13.90;8.60;;;;;16.10;101261.00;;;;4986152;28;20672;-78
2022/03/29 10:11:21;;;;;;;12.98;8.35;;;;;16.20;101247.00;;;;4976045;28;20209;-76
2022/03/29 10:13:49;;;;;;;17.00;10.25;;;;;16.20;101244.00;;;;4974667;28;20324;-77
2022/03/29 10:16:18;;;;;;;13.20;8.57;;;;;16.20;101243.00;;;;4969730;28;20231;-76
2022/03/29 10:18:47;;;;;;;14.93;8.65;;;;;16.20;101250.00;;;;4971082;28;20253;-77
2022/03/29 10:21:16;;;;;;;14.68;9.85;;;;;16.30;101250.00;;;;4972110;28;20220;-77
2022/03/29 10:23:49;;;;;;;13.27;8.55;;;;;16.30;101252.00;;;;4971683;28;20210;-77
2022/03/29 10:26:19;;;;;;;12.68;8.65;;;;;16.40;101251.00;;;;4970915;28;20965;-76
2022/03/29 10:28:47;;;;;;;15.05;9.77;;;;;16.50;101239.00;;;;4969658;28;20194;-77
2022/03/29 10:31:34;;;;;;;14.15;8.55;;;;;16.50;101246.00;;;;4977122;28;20313;-77
2022/03/29 10:34:13;;;;;;;15.70;10.05;;;;;16.60;101242.00;;;;4976065;28;20218;-77
2022/03/29 10:36:59;;;;;;;14.23;8.60;;;;;16.70;101242.00;;;;4971537;28;20198;-76
2022/03/29 10:39:50;;;;;;;16.17;9.82;;;;;16.90;101242.00;;;;4971978;28;20203;-77
2022/03/29 10:42:37;;;;;;;12.40;8.73;;;;;17.00;101241.00;;;;4972267;28;20206;-77
2022/03/29 10:45:17;;;;;;;16.48;9.05;;;;;17.20;101233.00;;;;4971849;28;20747;-77
2022/03/29 10:47:47;;;;;;;12.75;8.45;;;;;17.40;101235.00;;;;4974367;28;20209;-77
2022/03/29 10:50:16;;;;;;;15.93;10.38;;;;;17.60;101230.00;;;;4975287;28;20194;-76
2022/03/29 10:52:45;;;;;;;15.15;10.25;;;;;17.70;101230.00;;;;4975306;28;20288;-77
2022/03/29 10:55:27;;;;;;;17.13;10.27;;;;;17.80;101223.00;;;;4975173;28;20226;-77
2022/03/29 10:58:10;;;;;;;15.15;9.68;;;;;17.90;101228.00;;;;4973891;28;20273;-77
2022/03/29 11:00:39;;;;;;;16.67;9.38;;;;;18.20;101227.00;;;;4975108;28;20249;-77
2022/03/29 11:03:12;;;;;;;14.43;9.40;;;;;18.30;101219.00;;;;4976033;28;20190;-77
2022/03/29 11:06:08;;;;;;;15.77;10.55;;;;;18.40;101222.00;;;;4978005;28;20232;-77
2022/03/29 11:08:37;;;;;;;14.25;9.48;;;;;18.60;101225.00;;;;4973784;28;20210;-77
2022/03/29 11:11:06;;;;;;;15.07;10.55;;;;;18.70;101214.00;;;;4974842;28;20230;-77
2022/03/29 11:13:37;;;;;;;17.83;11.45;;;;;18.80;101205.00;;;;4973224;28;20226;-77
2022/03/29 11:16:29;;;;;;;14.40;9.98;;;;;18.90;101200.00;;;;4973255;28;20238;-77
2022/03/29 11:18:58;;;;;;;17.33;11.23;;;;;19.10;101192.00;;;;4971982;28;20249;-77
2022/03/29 11:21:44;;;;;;;15.32;10.10;;;;;19.00;101187.00;;;;4968450;28;21997;-77
2022/03/29 11:24:15;;;;;;;17.65;11.15;;;;;19.20;101194.00;;;;4967961;28;20202;-76
2022/03/29 11:26:58;;;;;;;15.00;9.95;;;;;19.30;101181.00;;;;4974694;28;20285;-77
2022/03/29 11:29:26;;;;;;;14.10;9.48;;;;;19.40;101187.00;;;;4971692;28;20211;-77
2022/03/29 11:31:56;;;;;;;17.88;12.02;;;;;19.50;101178.00;;;;4973177;28;20202;-77
2022/03/29 11:34:36;;;;;;;18.42;11.32;;;;;19.60;101174.00;;;;4972368;28;20236;-77
2022/03/29 11:37:04;;;;;;;14.52;10.30;;;;;19.70;101176.00;;;;4972550;28;20898;-77
2022/03/29 11:39:31;;;;;;;14.30;10.50;;;;;19.80;101176.00;;;;4982064;28;20210;-78
2022/03/29 11:41:58;;;;;;;17.50;11.57;;;;;19.90;101177.00;;;;4991643;28;20731;-77
2022/03/29 11:44:27;;;;;;;15.35;11.65;;;;;19.90;101168.00;;;;4985391;28;20194;-78
2022/03/29 11:46:56;;;;;;;15.50;10.88;;;;;20.00;101164.00;;;;4973197;28;20205;-77
2022/03/29 11:49:27;;;;;;;17.55;11.75;;;;;20.10;101164.00;;;;4971579;28;20213;-78
2022/03/29 11:52:06;;;;;;;13.57;10.02;;;;;20.10;101156.00;;;;4972452;28;20202;-77
2022/03/29 11:54:43;;;;;;;18.00;11.68;;;;;20.10;101149.00;;;;4973279;28;20229;-77
2022/03/29 11:57:21;;;;;;;15.48;10.75;;;;;20.10;101152.00;;;;4980688;28;20209;-78
2022/03/29 11:59:49;;;;;;;17.00;11.02;;;;;20.20;101141.00;;;;4972686;28;20206;-78
2022/03/29 12:02:18;;;;;;;14.57;9.77;;;;;20.20;101142.00;;;;4973218;28;20984;-77
2022/03/29 12:04:47;;;;;;;15.30;9.90;;;;;20.30;101129.00;;;;4973856;28;20752;-77
2022/03/29 12:07:15;;;;;;;17.48;11.15;;;;;20.30;101123.00;;;;4972836;28;20226;-77
2022/03/29 12:09:47;;;;;;;14.43;9.95;;;;;20.30;101119.00;;;;4973618;28;20198;-77
2022/03/29 12:12:16;;;;;;;13.30;10.00;;;;;20.30;101113.00;;;;4973387;28;20202;-77
2022/03/29 12:14:43;;;;;;;13.90;9.90;;;;;20.40;101104.00;;;;4987625;28;20242;-77
2022/03/29 12:17:12;;;;;;;12.80;9.55;;;;;20.40;101108.00;;;;4973110;28;20332;-77
2022/03/29 12:19:41;;;;;;;15.10;10.63;;;;;20.50;101096.00;;;;4974948;28;20202;-77
2022/03/29 12:22:12;;;;;;;15.50;10.35;;;;;20.50;101093.00;;;;4975187;28;20245;-77